sensor_id;sensor_type;location;lat;lon;timestamp;pressure;altitude;pressure_sealevel;temperature;humidity
62800;BME280;48842;51.046;13.796;2023-03-15T00:01:01;99691.44;;;5.87;55.04
62800;BME280;48842;51.046;13.796;2023-03-15T00:03:27;99700.94;;;5.85;55.11
62800;BME280;48842;51.046;13.796;2023-03-15T00:05:53;99699.22;;;5.87;55.52
62800;BME280;48842;51.046;13.796;2023-03-15T00:08:18;99705.31;;;5.87;55.39
62800;BME280;48842;51.046;13.796;2023-03-15T00:10:45;99710.53;;;5.87;55.86
62800;BME280;48842;51.046;13.796;2023-03-15T00:13:14;99713.97;;;5.88;56.32
62800;BME280;48842;51.046;13.796;2023-03-15T00:15:48;99713.97;;;5.88;56.74
62800;BME280;48842;51.046;13.796;2023-03-15T00:18:15;99719.19;;;5.88;57.13
62800;BME280;48842;51.046;13.796;2023-03-15T00:20:41;99729.56;;;5.88;57.35
62800;BME280;48842;51.046;13.796;2023-03-15T00:23:06;99719.19;;;5.88;57.38
62800;BME280;48842;51.046;13.796;2023-03-15T00:25:32;99733.94;;;5.89;57.70
62800;BME280;48842;51.046;13.796;2023-03-15T00:27:57;99726.16;;;5.90;58.04
62800;BME280;48842;51.046;13.796;2023-03-15T00:30:22;99734.81;;;5.91;58.64
62800;BME280;48842;51.046;13.796;2023-03-15T00:32:47;99733.94;;;5.90;58.29
62800;BME280;48842;51.046;13.796;2023-03-15T00:35:13;99743.47;;;5.90;58.54
62800;BME280;48842;51.046;13.796;2023-03-15T00:37:38;99744.31;;;5.87;58.65
62800;BME280;48842;51.046;13.796;2023-03-15T00:40:04;99730.41;;;5.85;58.88
62800;BME280;48842;51.046;13.796;2023-03-15T00:42:31;99741.66;;;5.84;58.91
62800;BME280;48842;51.046;13.796;2023-03-15T00:44:58;99748.59;;;5.87;58.75
62800;BME280;48842;51.046;13.796;2023-03-15T00:47:23;99747.81;;;5.91;58.87
62800;BME280;48842;51.046;13.796;2023-03-15T00:49:48;99749.53;;;5.90;59.00
62800;BME280;48842;51.046;13.796;2023-03-15T00:52:15;99758.19;;;5.89;58.65
62800;BME280;48842;51.046;13.796;2023-03-15T00:54:40;99759.00;;;5.87;58.51
62800;BME280;48842;51.046;13.796;2023-03-15T00:57:05;99752.88;;;5.82;58.52
62800;BME280;48842;51.046;13.796;2023-03-15T00:59:31;99761.50;;;5.77;58.49
62800;BME280;48842;51.046;13.796;2023-03-15T01:02:01;99762.31;;;5.75;59.02
62800;BME280;48842;51.046;13.796;2023-03-15T01:04:26;99760.56;;;5.72;59.24
62800;BME280;48842;51.046;13.796;2023-03-15T01:06:52;99759.69;;;5.72;59.33
62800;BME280;48842;51.046;13.796;2023-03-15T01:09:17;99768.38;;;5.72;59.16
62800;BME280;48842;51.046;13.796;2023-03-15T01:11:42;99775.25;;;5.70;59.43
62800;BME280;48842;51.046;13.796;2023-03-15T01:14:08;99774.34;;;5.68;59.85
62800;BME280;48842;51.046;13.796;2023-03-15T01:16:34;99776.94;;;5.67;60.01
62800;BME280;48842;51.046;13.796;2023-03-15T01:18:59;99774.34;;;5.68;60.17
62800;BME280;48842;51.046;13.796;2023-03-15T01:21:25;99783.84;;;5.68;60.35
62800;BME280;48842;51.046;13.796;2023-03-15T01:23:50;99783.00;;;5.67;60.23
62800;BME280;48842;51.046;13.796;2023-03-15T01:26:17;99783.84;;;5.66;60.07
62800;BME280;48842;51.046;13.796;2023-03-15T01:28:42;99791.63;;;5.65;60.41
62800;BME280;48842;51.046;13.796;2023-03-15T01:31:20;99790.75;;;5.64;60.76
62800;BME280;48842;51.046;13.796;2023-03-15T01:33:46;99796.78;;;5.63;60.68
62800;BME280;48842;51.046;13.796;2023-03-15T01:36:12;99798.53;;;5.63;60.29
62800;BME280;48842;51.046;13.796;2023-03-15T01:38:37;99791.59;;;5.63;60.58
62800;BME280;48842;51.046;13.796;2023-03-15T01:41:02;99801.13;;;5.64;60.66
62800;BME280;48842;51.046;13.796;2023-03-15T01:43:29;99802.88;;;5.64;60.80
62800;BME280;48842;51.046;13.796;2023-03-15T01:46:21;99794.16;;;5.62;60.99
62800;BME280;48842;51.046;13.796;2023-03-15T01:48:58;99800.19;;;5.60;60.52
62800;BME280;48842;51.046;13.796;2023-03-15T01:51:44;99796.75;;;5.60;60.42
62800;BME280;48842;51.046;13.796;2023-03-15T01:54:15;99793.25;;;5.58;60.71
62800;BME280;48842;51.046;13.796;2023-03-15T01:56:45;99801.91;;;5.57;60.74
62800;BME280;48842;51.046;13.796;2023-03-15T01:59:16;99802.75;;;5.56;60.93
62800;BME280;48842;51.046;13.796;2023-03-15T02:01:42;99801.84;;;5.54;61.01
62800;BME280;48842;51.046;13.796;2023-03-15T02:04:12;99800.09;;;5.53;60.87
62800;BME280;48842;51.046;13.796;2023-03-15T02:06:40;99799.19;;;5.49;60.88
62800;BME280;48842;51.046;13.796;2023-03-15T02:09:13;99808.63;;;5.46;60.81
62800;BME280;48842;51.046;13.796;2023-03-15T02:11:40;99807.75;;;5.44;61.11
62800;BME280;48842;51.046;13.796;2023-03-15T02:14:07;99805.97;;;5.41;61.02
62800;BME280;48842;51.046;13.796;2023-03-15T02:16:33;99802.50;;;5.39;61.09
62800;BME280;48842;51.046;13.796;2023-03-15T02:18:59;99807.66;;;5.37;61.07
62800;BME280;48842;51.046;13.796;2023-03-15T02:21:37;99798.94;;;5.35;61.56
62800;BME280;48842;51.046;13.796;2023-03-15T02:24:38;99805.84;;;5.33;61.75
62800;BME280;48842;51.046;13.796;2023-03-15T02:27:08;99802.31;;;5.30;61.67
62800;BME280;48842;51.046;13.796;2023-03-15T02:29:34;99807.50;;;5.28;61.83
62800;BME280;48842;51.046;13.796;2023-03-15T02:32:00;99812.66;;;5.27;61.44
62800;BME280;48842;51.046;13.796;2023-03-15T02:34:28;99814.38;;;5.24;61.67
62800;BME280;48842;51.046;13.796;2023-03-15T02:36:54;99816.03;;;5.22;61.69
62800;BME280;48842;51.046;13.796;2023-03-15T02:39:20;99823.78;;;5.19;61.48
62800;BME280;48842;51.046;13.796;2023-03-15T02:41:49;99831.53;;;5.18;61.92
62800;BME280;48842;51.046;13.796;2023-03-15T02:44:26;99836.75;;;5.19;61.95
62800;BME280;48842;51.046;13.796;2023-03-15T02:46:56;99838.50;;;5.19;62.00
62800;BME280;48842;51.046;13.796;2023-03-15T02:49:27;99841.09;;;5.19;62.17
62800;BME280;48842;51.046;13.796;2023-03-15T02:51:53;99841.94;;;5.18;62.32
62800;BME280;48842;51.046;13.796;2023-03-15T02:54:18;99844.47;;;5.15;62.09
62800;BME280;48842;51.046;13.796;2023-03-15T02:57:16;99833.22;;;5.14;62.51
62800;BME280;48842;51.046;13.796;2023-03-15T02:59:41;99845.31;;;5.14;62.40
62800;BME280;48842;51.046;13.796;2023-03-15T03:02:07;99847.03;;;5.13;62.32
62800;BME280;48842;51.046;13.796;2023-03-15T03:04:33;99847.91;;;5.14;62.31
62800;BME280;48842;51.046;13.796;2023-03-15T03:06:58;99848.81;;;5.14;62.02
62800;BME280;48842;51.046;13.796;2023-03-15T03:09:24;99856.63;;;5.16;62.69
62800;BME280;48842;51.046;13.796;2023-03-15T03:11:49;99858.28;;;5.14;62.30
62800;BME280;48842;51.046;13.796;2023-03-15T03:14:14;99863.47;;;5.14;62.51
62800;BME280;48842;51.046;13.796;2023-03-15T03:16:40;99863.47;;;5.14;62.00
62800;BME280;48842;51.046;13.796;2023-03-15T03:19:07;99873.88;;;5.14;62.36
62800;BME280;48842;51.046;13.796;2023-03-15T03:21:32;99870.38;;;5.12;61.97
62800;BME280;48842;51.046;13.796;2023-03-15T03:23:57;99879.78;;;5.06;62.39
62800;BME280;48842;51.046;13.796;2023-03-15T03:26:23;99885.84;;;5.05;62.09
62800;BME280;48842;51.046;13.796;2023-03-15T03:28:52;99898.81;;;5.04;62.36
62800;BME280;48842;51.046;13.796;2023-03-15T03:31:19;99899.66;;;5.04;62.47
62800;BME280;48842;51.046;13.796;2023-03-15T03:33:45;99901.38;;;5.02;62.47
62800;BME280;48842;51.046;13.796;2023-03-15T03:36:11;99908.28;;;5.03;62.15
62800;BME280;48842;51.046;13.796;2023-03-15T03:38:39;99907.41;;;5.03;62.77
62800;BME280;48842;51.046;13.796;2023-03-15T03:41:04;99903.09;;;5.03;62.24
62800;BME280;48842;51.046;13.796;2023-03-15T03:43:29;99913.47;;;5.03;62.74
62800;BME280;48842;51.046;13.796;2023-03-15T03:45:54;99906.56;;;5.02;62.58
62800;BME280;48842;51.046;13.796;2023-03-15T03:48:20;99905.63;;;5.00;62.37
62800;BME280;48842;51.046;13.796;2023-03-15T03:50:45;99915.97;;;4.97;62.19
62800;BME280;48842;51.046;13.796;2023-03-15T03:53:10;99923.63;;;4.91;62.72
62800;BME280;48842;51.046;13.796;2023-03-15T03:55:37;99925.25;;;4.86;62.27
62800;BME280;48842;51.046;13.796;2023-03-15T03:58:02;99929.53;;;4.84;62.33
62800;BME280;48842;51.046;13.796;2023-03-15T04:00:27;99921.69;;;4.81;62.32
62800;BME280;48842;51.046;13.796;2023-03-15T04:02:52;99930.28;;;4.78;62.87
62800;BME280;48842;51.046;13.796;2023-03-15T04:05:18;99928.50;;;4.76;62.60
62800;BME280;48842;51.046;13.796;2023-03-15T04:07:44;99936.19;;;4.71;62.71
62800;BME280;48842;51.046;13.796;2023-03-15T04:10:09;99930.06;;;4.67;62.62
62800;BME280;48842;51.046;13.796;2023-03-15T04:12:38;99933.56;;;4.69;63.14
62800;BME280;48842;51.046;13.796;2023-03-15T04:15:04;99937.91;;;4.70;62.68
62800;BME280;48842;51.046;13.796;2023-03-15T04:17:29;99945.66;;;4.69;62.81
62800;BME280;48842;51.046;13.796;2023-03-15T04:19:54;99951.66;;;4.66;63.45
62800;BME280;48842;51.046;13.796;2023-03-15T04:22:20;99954.19;;;4.63;62.80
62800;BME280;48842;51.046;13.796;2023-03-15T04:24:45;99955.84;;;4.61;63.39
62800;BME280;48842;51.046;13.796;2023-03-15T04:27:10;99962.75;;;4.59;63.04
62800;BME280;48842;51.046;13.796;2023-03-15T04:29:40;99963.53;;;4.57;63.30
62800;BME280;48842;51.046;13.796;2023-03-15T04:32:06;99975.63;;;4.54;62.92
62800;BME280;48842;51.046;13.796;2023-03-15T04:34:31;99974.66;;;4.51;63.21
62800;BME280;48842;51.046;13.796;2023-03-15T04:36:56;99976.34;;;4.49;63.27
62800;BME280;48842;51.046;13.796;2023-03-15T04:39:22;99974.50;;;4.43;63.24
62800;BME280;48842;51.046;13.796;2023-03-15T04:41:48;99979.63;;;4.42;63.27
62800;BME280;48842;51.046;13.796;2023-03-15T04:44:14;99980.47;;;4.41;63.48
62800;BME280;48842;51.046;13.796;2023-03-15T04:46:40;99985.66;;;4.41;63.68
62800;BME280;48842;51.046;13.796;2023-03-15T04:49:06;99993.44;;;4.41;63.66
62800;BME280;48842;51.046;13.796;2023-03-15T04:51:31;99995.97;;;4.37;63.27
62800;BME280;48842;51.046;13.796;2023-03-15T04:53:58;100005.56;;;4.42;63.71
62800;BME280;48842;51.046;13.796;2023-03-15T04:56:23;100004.69;;;4.41;63.91
62800;BME280;48842;51.046;13.796;2023-03-15T04:58:48;100006.41;;;4.41;63.49
62800;BME280;48842;51.046;13.796;2023-03-15T05:01:14;100012.44;;;4.40;63.69
62800;BME280;48842;51.046;13.796;2023-03-15T05:03:39;100010.69;;;4.39;63.13
62800;BME280;48842;51.046;13.796;2023-03-15T05:06:04;100018.47;;;4.39;63.73
62800;BME280;48842;51.046;13.796;2023-03-15T05:08:33;100025.41;;;4.40;62.82
62800;BME280;48842;51.046;13.796;2023-03-15T05:10:59;100026.31;;;4.42;62.90
62800;BME280;48842;51.046;13.796;2023-03-15T05:13:24;100031.53;;;4.43;63.50
62800;BME280;48842;51.046;13.796;2023-03-15T05:15:49;100030.69;;;4.44;63.15
62800;BME280;48842;51.046;13.796;2023-03-15T05:18:15;100033.31;;;4.46;62.64
62800;BME280;48842;51.046;13.796;2023-03-15T05:20:40;100038.59;;;4.49;63.06
62800;BME280;48842;51.046;13.796;2023-03-15T05:23:05;100047.25;;;4.51;63.06
62800;BME280;48842;51.046;13.796;2023-03-15T05:25:30;100049.03;;;4.52;63.00
62800;BME280;48842;51.046;13.796;2023-03-15T05:27:56;100049.06;;;4.53;62.73
62800;BME280;48842;51.046;13.796;2023-03-15T05:30:21;100054.31;;;4.57;62.05
62800;BME280;48842;51.046;13.796;2023-03-15T05:32:46;100056.06;;;4.58;62.80
62800;BME280;48842;51.046;13.796;2023-03-15T05:35:12;100057.81;;;4.57;62.22
62800;BME280;48842;51.046;13.796;2023-03-15T05:37:37;100065.63;;;4.59;62.19
62800;BME280;48842;51.046;13.796;2023-03-15T05:40:03;100078.63;;;4.60;61.20
62800;BME280;48842;51.046;13.796;2023-03-15T05:42:32;100070.91;;;4.63;61.16
62800;BME280;48842;51.046;13.796;2023-03-15T05:44:57;100076.19;;;4.68;61.49
62800;BME280;48842;51.046;13.796;2023-03-15T05:47:23;100078.03;;;4.72;61.30
62800;BME280;48842;51.046;13.796;2023-03-15T05:49:48;100084.16;;;4.76;61.12
62800;BME280;48842;51.046;13.796;2023-03-15T05:52:15;100083.31;;;4.77;60.83
62800;BME280;48842;51.046;13.796;2023-03-15T05:54:40;100094.56;;;4.77;59.79
62800;BME280;48842;51.046;13.796;2023-03-15T05:57:06;100098.06;;;4.78;59.78
62800;BME280;48842;51.046;13.796;2023-03-15T05:59:31;100098.13;;;4.81;59.80
62800;BME280;48842;51.046;13.796;2023-03-15T06:01:57;100106.81;;;4.83;59.30
62800;BME280;48842;51.046;13.796;2023-03-15T06:04:22;100115.44;;;4.82;58.81
62800;BME280;48842;51.046;13.796;2023-03-15T06:06:48;100111.19;;;4.85;58.97
62800;BME280;48842;51.046;13.796;2023-03-15T06:09:13;100120.84;;;4.91;59.08
62800;BME280;48842;51.046;13.796;2023-03-15T06:11:39;100126.91;;;4.92;58.17
62800;BME280;48842;51.046;13.796;2023-03-15T06:14:04;100125.22;;;4.92;58.42
62800;BME280;48842;51.046;13.796;2023-03-15T06:16:29;100132.22;;;4.98;58.67
62800;BME280;48842;51.046;13.796;2023-03-15T06:18:55;100131.50;;;5.03;58.48
62800;BME280;48842;51.046;13.796;2023-03-15T06:21:20;100132.56;;;5.12;57.68
62800;BME280;48842;51.046;13.796;2023-03-15T06:23:45;100131.00;;;5.18;57.62
62800;BME280;48842;51.046;13.796;2023-03-15T06:26:10;100138.91;;;5.24;57.66
62800;BME280;48842;51.046;13.796;2023-03-15T06:28:36;100136.41;;;5.29;57.76
62800;BME280;48842;51.046;13.796;2023-03-15T06:31:06;100148.63;;;5.33;57.21
62800;BME280;48842;51.046;13.796;2023-03-15T06:33:32;100143.50;;;5.36;56.72
62800;BME280;48842;51.046;13.796;2023-03-15T06:35:57;100147.84;;;5.37;55.19
62800;BME280;48842;51.046;13.796;2023-03-15T06:38:22;100156.47;;;5.36;55.50
62800;BME280;48842;51.046;13.796;2023-03-15T06:40:48;100160.91;;;5.40;55.36
62800;BME280;48842;51.046;13.796;2023-03-15T06:43:13;100160.94;;;5.42;55.33
62800;BME280;48842;51.046;13.796;2023-03-15T06:45:46;100168.69;;;5.40;55.18
62800;BME280;48842;51.046;13.796;2023-03-15T06:48:13;100165.22;;;5.41;55.15
62800;BME280;48842;51.046;13.796;2023-03-15T06:50:39;100164.22;;;5.33;53.68
62800;BME280;48842;51.046;13.796;2023-03-15T06:53:04;100168.63;;;5.37;54.45
62800;BME280;48842;51.046;13.796;2023-03-15T06:55:29;100169.59;;;5.42;54.18
62800;BME280;48842;51.046;13.796;2023-03-15T06:57:54;100170.59;;;5.48;54.33
62800;BME280;48842;51.046;13.796;2023-03-15T07:00:20;100175.91;;;5.54;53.60
62800;BME280;48842;51.046;13.796;2023-03-15T07:02:46;100174.28;;;5.59;53.93
62800;BME280;48842;51.046;13.796;2023-03-15T07:05:11;100173.56;;;5.66;54.29
62800;BME280;48842;51.046;13.796;2023-03-15T07:07:37;100175.47;;;5.75;53.96
62800;BME280;48842;51.046;13.796;2023-03-15T07:10:02;100178.16;;;5.80;53.41
62800;BME280;48842;51.046;13.796;2023-03-15T07:12:27;100179.16;;;5.85;53.30
62800;BME280;48842;51.046;13.796;2023-03-15T07:14:53;100185.34;;;5.91;53.83
62800;BME280;48842;51.046;13.796;2023-03-15T07:17:18;100175.13;;;5.99;53.80
62800;BME280;48842;51.046;13.796;2023-03-15T07:19:43;100177.00;;;6.05;53.17
62800;BME280;48842;51.046;13.796;2023-03-15T07:22:08;36389.75;;;-147.39;53.17
62800;BME280;48842;51.046;13.796;2023-03-15T07:24:34;100174.69;;;6.22;52.65
62800;BME280;48842;51.046;13.796;2023-03-15T07:26:59;100170.50;;;6.28;52.40
62800;BME280;48842;51.046;13.796;2023-03-15T07:29:24;100179.34;;;6.38;52.48
62800;BME280;48842;51.046;13.796;2023-03-15T07:31:50;100175.16;;;6.48;52.65
62800;BME280;48842;51.046;13.796;2023-03-15T07:34:16;100181.44;;;6.59;52.16
62800;BME280;48842;51.046;13.796;2023-03-15T07:36:41;100195.19;;;6.52;50.29
62800;BME280;48842;51.046;13.796;2023-03-15T07:39:07;100189.06;;;6.49;50.50
62800;BME280;48842;51.046;13.796;2023-03-15T07:41:32;100189.91;;;6.47;50.16
62800;BME280;48842;51.046;13.796;2023-03-15T07:43:57;100183.09;;;6.54;50.27
62800;BME280;48842;51.046;13.796;2023-03-15T07:46:23;100192.84;;;6.66;50.55
62800;BME280;48842;51.046;13.796;2023-03-15T07:48:49;100192.69;;;6.58;48.74
62800;BME280;48842;51.046;13.796;2023-03-15T07:51:14;100194.41;;;6.56;49.12
62800;BME280;48842;51.046;13.796;2023-03-15T07:53:39;100196.38;;;6.70;48.89
62800;BME280;48842;51.046;13.796;2023-03-15T07:56:05;100189.38;;;6.67;48.24
62800;BME280;48842;51.046;13.796;2023-03-15T07:58:30;100183.44;;;6.74;48.29
62800;BME280;48842;51.046;13.796;2023-03-15T08:00:56;100185.38;;;6.88;49.24
62800;BME280;48842;51.046;13.796;2023-03-15T08:03:22;100191.59;;;6.94;48.57
62800;BME280;48842;51.046;13.796;2023-03-15T08:05:48;100190.72;;;6.94;48.08
62800;BME280;48842;51.046;13.796;2023-03-15T08:08:14;100188.25;;;7.03;48.32
62800;BME280;48842;51.046;13.796;2023-03-15T08:10:40;100192.72;;;7.12;48.20
62800;BME280;48842;51.046;13.796;2023-03-15T08:13:05;100192.78;;;7.16;47.80
62800;BME280;48842;51.046;13.796;2023-03-15T08:15:31;100197.13;;;7.16;46.16
62800;BME280;48842;51.046;13.796;2023-03-15T08:17:56;100195.44;;;7.20;46.40
62800;BME280;48842;51.046;13.796;2023-03-15T08:20:21;100216.22;;;7.15;45.89
62800;BME280;48842;51.046;13.796;2023-03-15T08:22:48;100201.75;;;7.36;45.98
62800;BME280;48842;51.046;13.796;2023-03-15T08:25:16;100201.03;;;7.46;45.62
62800;BME280;48842;51.046;13.796;2023-03-15T08:27:41;100214.03;;;7.44;45.45
62800;BME280;48842;51.046;13.796;2023-03-15T08:30:08;100210.72;;;7.55;45.81
62800;BME280;48842;51.046;13.796;2023-03-15T08:32:36;100222.00;;;7.54;45.49
62800;BME280;48842;51.046;13.796;2023-03-15T08:35:01;100213.34;;;7.58;45.35
62800;BME280;48842;51.046;13.796;2023-03-15T08:37:26;100220.34;;;7.60;45.70
62800;BME280;48842;51.046;13.796;2023-03-15T08:39:51;100226.09;;;7.36;44.16
62800;BME280;48842;51.046;13.796;2023-03-15T08:42:24;100226.09;;;7.36;44.39
62800;BME280;48842;51.046;13.796;2023-03-15T08:44:50;100238.25;;;7.37;44.60
62800;BME280;48842;51.046;13.796;2023-03-15T08:47:15;100227.66;;;7.25;44.59
62800;BME280;48842;51.046;13.796;2023-03-15T08:49:40;100242.44;;;7.26;45.21
62800;BME280;48842;51.046;13.796;2023-03-15T08:52:06;100247.50;;;7.18;45.50
62800;BME280;48842;51.046;13.796;2023-03-15T08:54:31;100256.81;;;7.04;46.45
62800;BME280;48842;51.046;13.796;2023-03-15T08:56:56;100253.97;;;6.88;48.63
62800;BME280;48842;51.046;13.796;2023-03-15T08:59:22;100286.34;;;6.57;51.17
62800;BME280;48842;51.046;13.796;2023-03-15T09:01:47;100279.41;;;6.56;53.05
62800;BME280;48842;51.046;13.796;2023-03-15T09:04:12;100282.44;;;6.35;53.93
62800;BME280;48842;51.046;13.796;2023-03-15T09:06:37;100289.06;;;6.19;55.70
62800;BME280;48842;51.046;13.796;2023-03-15T09:09:03;100295.13;;;6.18;55.25
62800;BME280;48842;51.046;13.796;2023-03-15T09:11:28;100302.06;;;6.19;55.70
62800;BME280;48842;51.046;13.796;2023-03-15T09:13:53;100309.66;;;6.08;56.81
62800;BME280;48842;51.046;13.796;2023-03-15T09:16:18;100298.34;;;6.07;56.89
62800;BME280;48842;51.046;13.796;2023-03-15T09:18:44;100298.50;;;6.14;56.68
62800;BME280;48842;51.046;13.796;2023-03-15T09:21:09;100312.34;;;6.13;57.88
62800;BME280;48842;51.046;13.796;2023-03-15T09:23:35;100299.31;;;6.11;57.83
62800;BME280;48842;51.046;13.796;2023-03-15T09:26:00;100303.75;;;6.17;58.59
62800;BME280;48842;51.046;13.796;2023-03-15T09:28:25;100308.00;;;6.13;58.40
62800;BME280;48842;51.046;13.796;2023-03-15T09:30:51;100312.34;;;6.13;58.44
62800;BME280;48842;51.046;13.796;2023-03-15T09:33:16;100309.84;;;6.17;58.86
62800;BME280;48842;51.046;13.796;2023-03-15T09:35:41;100301.47;;;6.32;58.86
62800;BME280;48842;51.046;13.796;2023-03-15T09:38:07;100304.56;;;6.57;58.71
62800;BME280;48842;51.046;13.796;2023-03-15T09:40:37;100302.47;;;6.83;58.61
62800;BME280;48842;51.046;13.796;2023-03-15T09:43:24;100296.94;;;7.13;58.23
62800;BME280;48842;51.046;13.796;2023-03-15T09:46:31;100299.06;;;7.38;58.08
62800;BME280;48842;51.046;13.796;2023-03-15T09:49:13;100300.25;;;7.57;57.64
62800;BME280;48842;51.046;13.796;2023-03-15T09:51:46;100303.94;;;7.71;56.78
62800;BME280;48842;51.046;13.796;2023-03-15T09:54:17;100302.19;;;7.72;56.23
62800;BME280;48842;51.046;13.796;2023-03-15T09:56:59;100303.84;;;7.66;55.65
62800;BME280;48842;51.046;13.796;2023-03-15T09:59:32;100295.09;;;7.61;56.36
62800;BME280;48842;51.046;13.796;2023-03-15T10:02:01;100302.06;;;7.61;56.35
62800;BME280;48842;51.046;13.796;2023-03-15T10:04:32;100302.84;;;7.57;56.06
62800;BME280;48842;51.046;13.796;2023-03-15T10:07:11;100313.19;;;7.50;56.17
62800;BME280;48842;51.046;13.796;2023-03-15T10:09:36;100307.81;;;7.41;55.72
62800;BME280;48842;51.046;13.796;2023-03-15T10:12:08;100305.94;;;7.34;55.55
62800;BME280;48842;51.046;13.796;2023-03-15T10:20:24;100314.09;;;7.02;53.17
62800;BME280;48842;51.046;13.796;2023-03-15T10:23:09;100321.88;;;7.01;53.19
62800;BME280;48842;51.046;13.796;2023-03-15T10:25:37;100339.50;;;6.68;52.81
62800;BME280;48842;51.046;13.796;2023-03-15T10:28:09;100329.78;;;6.59;53.20
62800;BME280;48842;51.046;13.796;2023-03-15T10:30:39;100332.19;;;6.49;53.06
62800;BME280;48842;51.046;13.796;2023-03-15T10:33:30;100324.47;;;6.53;53.54
62800;BME280;48842;51.046;13.796;2023-03-15T10:35:57;100328.03;;;6.60;53.78
62800;BME280;48842;51.046;13.796;2023-03-15T10:38:23;100336.91;;;6.70;53.57
62800;BME280;48842;51.046;13.796;2023-03-15T10:40:51;100326.41;;;6.63;53.72
62800;BME280;48842;51.046;13.796;2023-03-15T10:43:20;100332.63;;;6.70;53.98
62800;BME280;48842;51.046;13.796;2023-03-15T10:46:12;100323.22;;;6.80;53.00
62800;BME280;48842;51.046;13.796;2023-03-15T10:48:55;100346.72;;;6.83;53.00
62800;BME280;48842;51.046;13.796;2023-03-15T10:51:29;100338.81;;;6.78;52.66
62800;BME280;48842;51.046;13.796;2023-03-15T10:53:59;100339.56;;;6.71;52.52
62800;BME280;48842;51.046;13.796;2023-03-15T10:56:28;100341.19;;;6.66;52.36
62800;BME280;48842;51.046;13.796;2023-03-15T10:58:56;100355.16;;;6.71;52.07
62800;BME280;48842;51.046;13.796;2023-03-15T11:01:32;100352.13;;;6.92;52.51
62800;BME280;48842;51.046;13.796;2023-03-15T11:04:21;100348.94;;;7.09;52.00
62800;BME280;48842;51.046;13.796;2023-03-15T11:09:21;100346.75;;;7.32;52.26
62800;BME280;48842;51.046;13.796;2023-03-15T11:11:57;100352.13;;;7.43;51.76
62800;BME280;48842;51.046;13.796;2023-03-15T11:14:24;100339.81;;;7.32;51.12
62800;BME280;48842;51.046;13.796;2023-03-15T11:16:53;100338.97;;;7.35;51.10
62800;BME280;48842;51.046;13.796;2023-03-15T11:19:30;100335.50;;;7.33;51.33
62800;BME280;48842;51.046;13.796;2023-03-15T11:21:57;100327.88;;;7.47;51.60
62800;BME280;48842;51.046;13.796;2023-03-15T11:24:32;100333.91;;;7.44;50.73
62800;BME280;48842;51.046;13.796;2023-03-15T11:27:00;100341.88;;;7.52;50.90
62800;BME280;48842;51.046;13.796;2023-03-15T11:29:29;100342.00;;;7.60;51.39
62800;BME280;48842;51.046;13.796;2023-03-15T11:31:57;100338.78;;;7.76;51.18
62800;BME280;48842;51.046;13.796;2023-03-15T11:34:39;100334.59;;;7.88;50.58
62800;BME280;48842;51.046;13.796;2023-03-15T11:37:14;100338.97;;;7.89;50.74
62800;BME280;48842;51.046;13.796;2023-03-15T11:39:51;100339.78;;;7.84;50.50
62800;BME280;48842;51.046;13.796;2023-03-15T11:42:23;100336.03;;;7.67;49.83
62800;BME280;48842;51.046;13.796;2023-03-15T11:44:55;100344.69;;;7.66;50.54
62800;BME280;48842;51.046;13.796;2023-03-15T11:47:29;100342.97;;;7.68;50.19
62800;BME280;48842;51.046;13.796;2023-03-15T11:49:57;100344.56;;;7.57;49.34
62800;BME280;48842;51.046;13.796;2023-03-15T11:52:25;100339.34;;;7.57;49.77
62800;BME280;48842;51.046;13.796;2023-03-15T11:54:54;100340.13;;;7.53;49.14
62800;BME280;48842;51.046;13.796;2023-03-15T11:57:39;100336.53;;;7.46;48.40
62800;BME280;48842;51.046;13.796;2023-03-15T12:02:54;100339.91;;;7.39;48.63
62800;BME280;48842;51.046;13.796;2023-03-15T12:08:40;100327.00;;;7.46;48.82
62800;BME280;48842;51.046;13.796;2023-03-15T12:16:21;100335.41;;;7.85;48.62
62800;BME280;48842;51.046;13.796;2023-03-15T12:18:47;100324.16;;;7.88;48.13
62800;BME280;48842;51.046;13.796;2023-03-15T12:21:15;100327.59;;;7.85;48.46
62800;BME280;48842;51.046;13.796;2023-03-15T12:23:48;100321.44;;;7.78;48.62
62800;BME280;48842;51.046;13.796;2023-03-15T12:26:39;100331.94;;;7.84;48.98
62800;BME280;48842;51.046;13.796;2023-03-15T12:29:17;100331.91;;;7.81;48.69
62800;BME280;48842;51.046;13.796;2023-03-15T12:34:24;100329.53;;;8.00;48.06
62800;BME280;48842;51.046;13.796;2023-03-15T12:36:52;100328.03;;;8.17;47.74
62800;BME280;48842;51.046;13.796;2023-03-15T12:39:35;100327.44;;;8.35;47.06
62800;BME280;48842;51.046;13.796;2023-03-15T12:42:02;100332.09;;;8.60;46.93
62800;BME280;48842;51.046;13.796;2023-03-15T12:47:02;100327.88;;;8.71;45.70
62800;BME280;48842;51.046;13.796;2023-03-15T12:49:28;100322.56;;;8.62;44.88
62800;BME280;48842;51.046;13.796;2023-03-15T12:54:44;100332.09;;;8.60;46.16
62800;BME280;48842;51.046;13.796;2023-03-15T12:57:12;100331.19;;;8.54;46.16
62800;BME280;48842;51.046;13.796;2023-03-15T13:00:14;100329.34;;;8.47;46.08
62800;BME280;48842;51.046;13.796;2023-03-15T13:02:45;100327.47;;;8.38;45.84
62800;BME280;48842;51.046;13.796;2023-03-15T13:05:18;100336.16;;;8.39;45.74
62800;BME280;48842;51.046;13.796;2023-03-15T13:07:51;100339.75;;;8.44;45.81
62800;BME280;48842;51.046;13.796;2023-03-15T13:12:58;100334.59;;;8.49;45.40
62800;BME280;48842;51.046;13.796;2023-03-15T13:15:50;100337.31;;;8.60;45.87
62800;BME280;48842;51.046;13.796;2023-03-15T13:18:23;100339.09;;;8.64;45.82
62800;BME280;48842;51.046;13.796;2023-03-15T13:21:30;100339.41;;;8.90;46.67
62800;BME280;48842;51.046;13.796;2023-03-15T13:23:57;100325.16;;;9.48;46.43
62800;BME280;48842;51.046;13.796;2023-03-15T13:26:40;100328.97;;;9.93;43.50
62800;BME280;48842;51.046;13.796;2023-03-15T13:29:13;100318.69;;;10.30;43.97